Airfield :
LOGIN :

Register | Disclaimer

   EN    FR    IT 

 










Legend :    VFR   Marginal VFR   IFR   Intensive IFR   Very Intensive IFR
Visi :
Ceiling :
>= 8 km
>= 3000ft
5 to 8 km
1000 to 3000 ft
1500m to 5 km
500 to 1000 ft
800 to 1500m
200 to 500 ft
< 800m
< 200 ft
Symbols :   Thunderstorms  Fog  Heavy snow  Heavy precipitations  Wind > 20 kt
SIGMETs :     Misc.  Thunderstorms  Icing  Turbulence  Mountain Waves  Volcanic Ashes






- Airport Elevation : 302 ft
- IATA code : CGN


EDDK - Cologne Bonn

CURRENT METAR :
  • 270820Z VRB02KT 9999 BKN021 03/01 Q0988 NOSIG

EXPIRED METARs :
  • 270750Z 14003KT 110V180 9999 BKN021 02/01 Q0988 NOSIG
  • 270720Z VRB01KT 9999 BKN026 01/00 Q0988 NOSIG
  • 270650Z VRB01KT 9999 FEW014 02/01 Q0987 NOSIG
  • 270620Z 27003KT 220V290 9999 SCT014 BKN032 03/01 Q0987 TEMPO BKN014

TAF TAF EDDK
Valid from the 27 at 06:00 until the 28 at 12:00 UTC


270500Z 2706/2812 18006KT 9999 BKN012
BECMG 2706/2710 24007KT SCT015
BECMG 2714/2717 18006KT
BECMG 2718/2721 12005KT
TEMPO 2803/2812 BKN012
PROB40
TEMPO 2804/2812 VRB03KT 3000 -SNRA BKN008



MET'MAP, your aeronautical weather chart ! - Copyright ORBIFLY December 2007 - Disclaimer

ORBIFLY MET'MAP TEAM :

Programming & Development : Alexandra Zaïnal
Concept & original design : Baudouin d'Aumeries
Assistance for programming : Marc-Olivier Méhu
Technical & hardware support : Manuel Goepfert

Contact : metmap@orbifly.com




SOURCES & CREDITS :

   NOAA